createdAt,value
2023-03-03T00:00:09.925Z,11.74
2023-03-03T00:01:12.498Z,9.82
2023-03-03T00:02:15.067Z,15.85
2023-03-03T00:03:17.683Z,11.49
2023-03-03T00:04:20.397Z,14.46
2023-03-03T00:05:22.980Z,16.24
2023-03-03T00:06:25.745Z,11.99
2023-03-03T00:07:28.322Z,15.71
2023-03-03T00:08:31.030Z,14.01
2023-03-03T00:09:33.634Z,12.70
2023-03-03T00:10:36.369Z,16.31
2023-03-03T00:11:38.929Z,11.96
2023-03-03T00:12:41.492Z,15.73
2023-03-03T00:13:44.071Z,12.62
2023-03-03T00:14:46.640Z,10.71
2023-03-03T00:15:49.268Z,12.03
2023-03-03T00:16:52.075Z,14.17
2023-03-03T00:17:54.626Z,11.91
2023-03-03T00:18:57.087Z,15.62
2023-03-03T00:19:59.803Z,11.51
2023-03-03T00:21:02.464Z,11.50
2023-03-03T00:22:05.048Z,12.20
2023-03-03T00:23:07.590Z,15.21
2023-03-03T00:24:10.145Z,10.70
2023-03-03T00:25:12.609Z,13.33
2023-03-03T00:26:15.483Z,12.47
2023-03-03T00:27:17.944Z,14.87
2023-03-03T00:28:20.503Z,11.33
2023-03-03T00:29:23.072Z,12.49
2023-03-03T00:30:25.881Z,12.56
2023-03-03T00:31:28.443Z,13.19
2023-03-03T00:32:31.037Z,15.37
2023-03-03T00:33:33.953Z,15.51
2023-03-03T00:34:36.510Z,13.04
2023-03-03T00:35:39.112Z,14.23
2023-03-03T00:36:41.942Z,16.27
2023-03-03T00:37:44.519Z,15.64
2023-03-03T00:38:47.045Z,8.77
2023-03-03T00:39:49.509Z,10.69
2023-03-03T00:40:52.279Z,12.13
2023-03-03T00:41:54.847Z,16.65
2023-03-03T00:42:57.412Z,13.49
2023-03-03T00:44:00.034Z,17.09
2023-03-03T00:45:02.684Z,13.00
2023-03-03T00:46:05.691Z,13.42
2023-03-03T00:47:08.327Z,11.57
2023-03-03T00:48:10.873Z,13.24
2023-03-03T00:49:13.328Z,12.49
2023-03-03T00:50:16.342Z,20.31
2023-03-03T00:51:18.883Z,12.05
2023-03-03T00:52:21.345Z,12.52
2023-03-03T00:53:23.931Z,15.24
2023-03-03T00:54:26.689Z,17.98
2023-03-03T00:55:29.288Z,10.09
2023-03-03T00:56:31.957Z,11.85
2023-03-03T00:57:34.525Z,15.83
2023-03-03T00:58:37.082Z,14.06
2023-03-03T00:59:39.610Z,12.55
2023-03-03T01:00:42.086Z,12.22
2023-03-03T01:01:44.690Z,11.30
2023-03-03T01:02:47.542Z,9.54
2023-03-03T01:03:50.444Z,13.73
2023-03-03T01:04:53.006Z,13.30
2023-03-03T01:05:55.581Z,11.04
2023-03-03T01:06:58.335Z,9.59
2023-03-03T01:08:00.800Z,15.00
2023-03-03T01:09:03.365Z,8.15
2023-03-03T01:10:06.444Z,14.38
2023-03-03T01:11:08.991Z,12.75
2023-03-03T01:12:11.551Z,11.65
2023-03-03T01:13:14.157Z,14.16
2023-03-03T01:14:16.756Z,11.62
2023-03-03T01:15:19.284Z,11.13
2023-03-03T01:16:22.130Z,11.34
2023-03-03T01:17:24.733Z,10.95
2023-03-03T01:18:27.463Z,8.41
2023-03-03T01:19:30.016Z,10.91
2023-03-03T01:20:32.786Z,13.38
2023-03-03T01:21:35.331Z,15.39
2023-03-03T01:22:38.098Z,13.15
2023-03-03T01:23:40.680Z,10.77
2023-03-03T01:24:43.338Z,13.16
2023-03-03T01:25:45.906Z,14.45
2023-03-03T01:26:48.492Z,10.67
2023-03-03T01:27:51.072Z,9.60
2023-03-03T01:28:53.674Z,16.72
2023-03-03T01:29:56.236Z,12.75
2023-03-03T01:30:59.147Z,11.40
2023-03-03T01:32:01.914Z,10.49
2023-03-03T01:33:04.711Z,10.89
2023-03-03T01:34:07.238Z,11.01
2023-03-03T01:35:09.791Z,15.47
2023-03-03T01:36:12.845Z,14.51
2023-03-03T01:37:15.433Z,12.22
2023-03-03T01:38:18.172Z,12.98
2023-03-03T01:39:20.686Z,12.47
2023-03-03T01:40:23.343Z,9.39
2023-03-03T01:41:25.830Z,11.81
2023-03-03T01:42:28.389Z,10.78
2023-03-03T01:43:30.994Z,7.67
2023-03-03T01:44:33.615Z,9.46
2023-03-03T01:45:36.175Z,7.35
2023-03-03T01:46:38.907Z,13.28
2023-03-03T01:47:41.418Z,13.02
2023-03-03T01:48:44.015Z,9.13
2023-03-03T01:49:46.740Z,13.19
2023-03-03T01:50:49.594Z,14.73
2023-03-03T01:51:52.169Z,11.75
2023-03-03T01:52:54.715Z,16.26
2023-03-03T01:53:57.275Z,14.04
2023-03-03T01:54:59.817Z,13.59
2023-03-03T01:56:02.574Z,11.44
2023-03-03T01:57:05.133Z,12.19
2023-03-03T01:58:07.781Z,8.55
2023-03-03T01:59:10.348Z,9.87
2023-03-03T02:00:14.661Z,8.90
2023-03-03T02:01:17.208Z,17.32
2023-03-03T02:02:19.778Z,12.79
2023-03-03T02:03:22.266Z,10.65
2023-03-03T02:04:24.830Z,11.63
2023-03-03T02:05:27.382Z,13.70
2023-03-03T02:06:30.240Z,15.25
2023-03-03T02:07:32.796Z,9.19
2023-03-03T02:08:35.373Z,13.43
2023-03-03T02:09:37.925Z,13.13
2023-03-03T02:10:40.885Z,14.59
2023-03-03T02:11:43.458Z,8.50
2023-03-03T02:12:46.017Z,12.94
2023-03-03T02:13:48.570Z,14.80
2023-03-03T02:14:51.124Z,14.35
2023-03-03T02:15:53.614Z,11.67
2023-03-03T02:16:56.561Z,20.77
2023-03-03T02:17:59.120Z,11.84
2023-03-03T02:19:01.692Z,10.19
2023-03-03T02:20:04.655Z,12.41
2023-03-03T02:21:07.230Z,11.99
2023-03-03T02:22:09.870Z,16.20
2023-03-03T02:23:12.433Z,12.75
2023-03-03T02:24:14.997Z,15.38
2023-03-03T02:25:17.372Z,15.20
2023-03-03T02:26:19.948Z,16.92
2023-03-03T02:27:22.512Z,19.88
2023-03-03T02:28:25.071Z,12.25
2023-03-03T02:29:27.774Z,14.96
2023-03-03T02:30:30.726Z,14.32
2023-03-03T02:31:33.366Z,16.98
2023-03-03T02:32:36.162Z,14.70
2023-03-03T02:33:39.065Z,16.04
2023-03-03T02:34:41.876Z,13.72
2023-03-03T02:35:44.568Z,13.87
2023-03-03T02:36:47.351Z,13.74
2023-03-03T02:37:49.969Z,14.23
2023-03-03T02:38:52.520Z,10.89
2023-03-03T02:39:55.076Z,12.14
2023-03-03T02:40:57.767Z,13.69
2023-03-03T02:42:00.337Z,14.10
2023-03-03T02:43:03.009Z,12.40
2023-03-03T02:44:05.471Z,10.51
2023-03-03T02:45:08.022Z,14.59
2023-03-03T02:46:12.316Z,11.63
2023-03-03T02:47:14.921Z,10.97
2023-03-03T02:48:17.513Z,12.17
2023-03-03T02:49:20.094Z,14.89
2023-03-03T02:50:22.985Z,15.18
2023-03-03T02:51:25.521Z,14.46
2023-03-03T02:52:28.099Z,12.74
2023-03-03T02:53:30.761Z,14.21
2023-03-03T02:54:33.329Z,12.13
2023-03-03T02:55:35.896Z,13.07
2023-03-03T02:56:38.661Z,13.79
2023-03-03T02:57:41.226Z,13.38
2023-03-03T02:58:43.796Z,10.25
2023-03-03T02:59:46.254Z,15.45
2023-03-03T03:00:49.050Z,13.26
2023-03-03T03:01:51.906Z,19.74
2023-03-03T03:02:54.452Z,12.01
2023-03-03T03:03:57.063Z,16.53
2023-03-03T03:04:59.601Z,12.24
2023-03-03T03:06:02.161Z,13.34
2023-03-03T03:07:04.942Z,18.20
2023-03-03T03:08:07.567Z,14.14
2023-03-03T03:09:10.125Z,11.12
2023-03-03T03:10:13.341Z,16.69
2023-03-03T03:11:15.905Z,13.38
2023-03-03T03:12:18.469Z,12.97
2023-03-03T03:13:21.039Z,14.47
2023-03-03T03:14:23.605Z,12.07
2023-03-03T03:15:26.234Z,16.45
2023-03-03T03:16:29.101Z,10.82
2023-03-03T03:17:31.761Z,15.19
2023-03-03T03:18:34.321Z,12.17
2023-03-03T03:19:36.920Z,12.32
2023-03-03T03:20:39.684Z,13.92
2023-03-03T03:21:42.251Z,23.91
2023-03-03T03:22:44.960Z,11.28
2023-03-03T03:23:47.550Z,13.44
2023-03-03T03:24:50.112Z,17.03
2023-03-03T03:25:52.775Z,11.81
2023-03-03T03:26:55.444Z,12.08
2023-03-03T03:27:58.011Z,12.90
2023-03-03T03:29:00.661Z,15.99
2023-03-03T03:30:03.804Z,15.86
2023-03-03T03:31:06.516Z,16.11
2023-03-03T03:32:09.062Z,13.03
2023-03-03T03:33:11.648Z,14.57
2023-03-03T03:34:14.216Z,12.75
2023-03-03T03:35:16.787Z,20.15
2023-03-03T03:36:19.805Z,13.72
2023-03-03T03:37:22.384Z,13.75
2023-03-03T03:38:25.023Z,14.76
2023-03-03T03:39:27.854Z,15.96
2023-03-03T03:40:30.968Z,15.51
2023-03-03T03:41:33.672Z,19.83
2023-03-03T03:42:36.250Z,16.70
2023-03-03T03:43:38.828Z,13.99
2023-03-03T03:44:41.718Z,11.81
2023-03-03T03:45:44.296Z,15.99
2023-03-03T03:46:47.056Z,16.32
2023-03-03T03:47:49.608Z,16.70
2023-03-03T03:48:52.217Z,17.20
2023-03-03T03:49:54.794Z,19.71
2023-03-03T03:50:57.485Z,14.29
2023-03-03T03:52:00.050Z,13.01
2023-03-03T03:53:02.592Z,15.54
2023-03-03T03:54:05.179Z,16.94
2023-03-03T03:55:07.759Z,13.59
2023-03-03T03:56:11.433Z,16.37
2023-03-03T03:57:14.013Z,15.80
2023-03-03T03:58:16.571Z,17.20
2023-03-03T03:59:19.125Z,16.85
2023-03-03T04:00:21.796Z,15.32
2023-03-03T04:01:24.494Z,15.20
2023-03-03T04:02:27.111Z,17.48
2023-03-03T04:03:29.890Z,18.16
2023-03-03T04:04:32.822Z,14.21
2023-03-03T04:05:35.380Z,21.29
2023-03-03T04:06:38.062Z,17.71
2023-03-03T04:07:40.622Z,18.34
2023-03-03T04:08:43.091Z,17.57
2023-03-03T04:09:45.656Z,15.09
2023-03-03T04:10:48.418Z,19.12
2023-03-03T04:11:51.157Z,14.11
2023-03-03T04:12:53.665Z,18.37
2023-03-03T04:13:56.234Z,19.76
2023-03-03T04:14:58.791Z,13.81
2023-03-03T04:16:01.384Z,16.84
2023-03-03T04:17:04.466Z,19.51
2023-03-03T04:18:06.937Z,13.27
2023-03-03T04:19:09.516Z,14.34
2023-03-03T04:20:13.103Z,17.25
2023-03-03T04:21:15.713Z,14.14
2023-03-03T04:22:18.317Z,16.05
2023-03-03T04:23:20.937Z,15.69
2023-03-03T04:24:23.497Z,19.86
2023-03-03T04:25:26.082Z,16.01
2023-03-03T04:26:29.142Z,18.46
2023-03-03T04:27:31.754Z,15.84
2023-03-03T04:28:34.342Z,14.42
2023-03-03T04:29:36.898Z,16.30
2023-03-03T04:30:40.022Z,20.18
2023-03-03T04:31:42.548Z,67.89
2023-03-03T04:32:45.151Z,96.91
2023-03-03T04:33:47.882Z,199.49
2023-03-03T04:34:58.667Z,308.46
2023-03-03T04:35:54.877Z,210.98
2023-03-03T04:36:57.608Z,89.09
2023-03-03T04:38:00.215Z,77.57
2023-03-03T04:39:02.826Z,86.11
2023-03-03T04:40:05.714Z,70.46
2023-03-03T04:41:08.264Z,66.59
2023-03-03T04:42:10.820Z,237.41
2023-03-03T04:43:13.439Z,283.65
2023-03-03T04:44:16.057Z,107.03
2023-03-03T04:45:18.620Z,65.16
2023-03-03T04:46:21.393Z,29.65
2023-03-03T04:47:24.053Z,31.96
2023-03-03T04:48:26.771Z,35.00
2023-03-03T04:49:29.369Z,24.07
2023-03-03T04:50:32.044Z,58.95
2023-03-03T04:51:34.620Z,26.45
2023-03-03T04:52:37.178Z,72.05
2023-03-03T04:53:39.658Z,102.63
2023-03-03T04:54:42.233Z,94.03
2023-03-03T04:55:44.827Z,59.24
2023-03-03T04:56:47.789Z,48.04
2023-03-03T04:57:50.432Z,37.59
2023-03-03T04:58:52.982Z,53.25
2023-03-03T04:59:55.581Z,35.42
2023-03-03T05:00:58.455Z,34.08
2023-03-03T05:02:00.997Z,43.33
2023-03-03T05:03:03.453Z,41.47
2023-03-03T05:04:06.204Z,24.01
2023-03-03T05:05:08.768Z,19.47
2023-03-03T05:06:12.175Z,23.24
2023-03-03T05:07:14.718Z,18.58
2023-03-03T05:08:17.248Z,19.93
2023-03-03T05:09:19.830Z,23.14
2023-03-03T05:10:22.791Z,26.08
2023-03-03T05:11:25.411Z,17.61
2023-03-03T05:12:28.104Z,26.48
2023-03-03T05:13:30.567Z,22.03
2023-03-03T05:14:33.163Z,22.19
2023-03-03T05:15:35.749Z,30.50
2023-03-03T05:16:38.416Z,25.19
2023-03-03T05:17:40.885Z,17.87
2023-03-03T05:18:43.432Z,30.05
2023-03-03T05:19:46.211Z,19.13
2023-03-03T05:20:49.193Z,19.39
2023-03-03T05:21:51.769Z,23.78
2023-03-03T05:22:54.322Z,17.62
2023-03-03T05:23:56.948Z,23.99
2023-03-03T05:24:59.553Z,21.56
2023-03-03T05:26:02.386Z,16.43
2023-03-03T05:27:04.966Z,21.46
2023-03-03T05:28:07.541Z,18.61
2023-03-03T05:29:10.105Z,18.11
2023-03-03T05:30:13.552Z,18.47
2023-03-03T05:31:16.135Z,18.73
2023-03-03T05:32:18.759Z,24.21
2023-03-03T05:33:21.450Z,19.29
2023-03-03T05:34:24.005Z,22.89
2023-03-03T05:35:26.688Z,15.97
2023-03-03T05:36:29.825Z,19.19
2023-03-03T05:37:32.405Z,16.74
2023-03-03T05:38:34.963Z,20.79
2023-03-03T05:39:37.522Z,14.95
2023-03-03T05:40:40.532Z,16.97
2023-03-03T05:41:43.363Z,14.53
2023-03-03T05:42:46.121Z,19.72
2023-03-03T05:43:48.810Z,17.96
2023-03-03T05:44:51.338Z,21.93
2023-03-03T05:45:53.937Z,18.72
2023-03-03T05:46:56.851Z,9.54
2023-03-03T05:47:59.365Z,18.89
2023-03-03T05:49:01.958Z,19.66
2023-03-03T05:50:04.812Z,20.05
2023-03-03T05:51:07.315Z,13.38
2023-03-03T05:52:09.839Z,21.13
2023-03-03T05:53:12.396Z,16.07
2023-03-03T05:54:14.885Z,18.09
2023-03-03T05:55:17.446Z,16.15
2023-03-03T05:56:21.061Z,7.55
2023-03-03T05:57:23.687Z,18.25
2023-03-03T05:58:26.246Z,27.27
2023-03-03T05:59:28.713Z,33.73
2023-03-03T06:00:31.817Z,19.02
2023-03-03T06:01:34.429Z,21.89
2023-03-03T06:02:37.021Z,15.87
2023-03-03T06:03:39.526Z,15.19
2023-03-03T06:04:42.098Z,19.39
2023-03-03T06:05:44.681Z,24.55
2023-03-03T06:06:47.559Z,17.96
2023-03-03T06:07:50.122Z,22.48
2023-03-03T06:08:52.694Z,9.53
2023-03-03T06:09:55.295Z,8.23
2023-03-03T06:10:57.898Z,15.23
2023-03-03T06:12:00.473Z,10.52
2023-03-03T06:13:03.018Z,12.23
2023-03-03T06:14:05.632Z,16.91
2023-03-03T06:15:08.657Z,25.21
2023-03-03T06:16:12.829Z,18.79
2023-03-03T06:17:15.800Z,16.94
2023-03-03T06:18:18.351Z,20.33
2023-03-03T06:19:20.941Z,20.51
2023-03-03T06:20:23.705Z,19.12
2023-03-03T06:21:26.256Z,19.61
2023-03-03T06:22:28.837Z,17.53
2023-03-03T06:23:31.444Z,18.09
2023-03-03T06:24:33.983Z,14.13
2023-03-03T06:25:36.545Z,16.65
2023-03-03T06:26:39.453Z,19.20
2023-03-03T06:27:42.029Z,17.67
2023-03-03T06:28:44.613Z,18.10
2023-03-03T06:29:47.245Z,20.21
2023-03-03T06:30:49.845Z,18.50
2023-03-03T06:31:52.542Z,16.65
2023-03-03T06:32:55.129Z,18.81
2023-03-03T06:33:57.873Z,19.23
2023-03-03T06:35:00.478Z,15.38
2023-03-03T06:36:05.668Z,18.55
2023-03-03T06:37:07.446Z,17.23
2023-03-03T06:38:10.230Z,20.09
2023-03-03T06:39:12.790Z,15.56
2023-03-03T06:40:15.666Z,17.21
2023-03-03T06:41:18.199Z,14.48
2023-03-03T06:42:20.794Z,17.06
2023-03-03T06:43:23.360Z,15.53
2023-03-03T06:44:28.378Z,13.92
2023-03-03T06:45:30.617Z,13.46
2023-03-03T06:46:33.343Z,17.54
2023-03-03T06:47:35.949Z,19.77
2023-03-03T06:48:38.525Z,15.09
2023-03-03T06:49:41.097Z,19.55
2023-03-03T06:50:43.945Z,9.60
2023-03-03T06:51:46.443Z,13.57
2023-03-03T06:52:50.732Z,16.90
2023-03-03T06:53:53.488Z,15.93
2023-03-03T06:54:56.037Z,10.41
2023-03-03T06:55:58.495Z,15.06
2023-03-03T06:57:01.154Z,15.80
2023-03-03T06:58:03.789Z,17.90
2023-03-03T06:59:06.285Z,16.71
2023-03-03T07:00:10.550Z,14.19
2023-03-03T07:01:13.131Z,18.32
2023-03-03T07:02:15.759Z,20.89
2023-03-03T07:03:18.356Z,14.43
2023-03-03T07:04:21.096Z,21.35
2023-03-03T07:05:23.691Z,16.31
2023-03-03T07:06:26.366Z,15.87
2023-03-03T07:07:28.942Z,16.51
2023-03-03T07:08:31.497Z,15.68
2023-03-03T07:09:34.060Z,22.93
2023-03-03T07:10:36.716Z,21.05
2023-03-03T07:11:39.272Z,14.86
2023-03-03T07:12:42.134Z,12.91
2023-03-03T07:13:44.913Z,15.69
2023-03-03T07:14:47.474Z,13.73
2023-03-03T07:15:50.058Z,14.99
2023-03-03T07:16:52.854Z,14.81
2023-03-03T07:17:55.480Z,20.36
2023-03-03T07:18:58.096Z,14.49
2023-03-03T07:20:00.671Z,15.25
2023-03-03T07:21:03.276Z,19.56
2023-03-03T07:22:05.813Z,15.94
2023-03-03T07:23:08.385Z,14.00
2023-03-03T07:24:10.987Z,14.59
2023-03-03T07:25:13.561Z,19.30
2023-03-03T07:26:16.540Z,17.31
2023-03-03T07:27:19.108Z,15.03
2023-03-03T07:28:21.662Z,16.76
2023-03-03T07:29:24.257Z,10.77
2023-03-03T07:30:26.932Z,14.19
2023-03-03T07:31:29.471Z,9.01
2023-03-03T07:32:32.120Z,11.41
2023-03-03T07:33:34.728Z,12.41
2023-03-03T07:34:37.300Z,14.79
2023-03-03T07:35:39.941Z,12.76
2023-03-03T07:36:42.959Z,20.09
2023-03-03T07:37:45.542Z,14.83
2023-03-03T07:38:48.614Z,13.39
2023-03-03T07:39:51.835Z,11.66
2023-03-03T07:40:54.868Z,13.46
2023-03-03T07:41:57.381Z,15.38
2023-03-03T07:42:59.952Z,12.54
2023-03-03T07:44:02.511Z,13.63
2023-03-03T07:45:05.285Z,13.25
2023-03-03T07:46:08.654Z,12.04
2023-03-03T07:47:11.518Z,13.03
2023-03-03T07:48:14.104Z,17.99
2023-03-03T07:49:16.648Z,14.35
2023-03-03T07:50:19.341Z,11.59
2023-03-03T07:51:21.939Z,13.29
2023-03-03T07:52:24.528Z,17.25
2023-03-03T07:53:27.154Z,13.59
2023-03-03T07:54:29.754Z,14.57
2023-03-03T07:55:32.356Z,16.12
2023-03-03T07:56:35.123Z,12.46
2023-03-03T07:57:37.726Z,13.12
2023-03-03T07:58:40.290Z,11.49
2023-03-03T07:59:42.833Z,11.71
2023-03-03T08:00:45.658Z,10.58
2023-03-03T08:01:48.203Z,18.37
2023-03-03T08:02:50.763Z,20.39
2023-03-03T08:03:53.353Z,12.33
2023-03-03T08:04:55.988Z,20.90
2023-03-03T08:05:58.555Z,25.87
2023-03-03T08:07:01.240Z,19.62
2023-03-03T08:08:03.809Z,12.68
2023-03-03T08:09:06.364Z,19.52
2023-03-03T08:10:09.611Z,16.41
2023-03-03T08:11:12.421Z,11.89
2023-03-03T08:12:15.032Z,16.16
2023-03-03T08:13:17.619Z,9.52
2023-03-03T08:14:20.177Z,7.22
2023-03-03T08:15:22.783Z,10.33
2023-03-03T08:16:25.586Z,8.24
2023-03-03T08:17:28.214Z,8.44
2023-03-03T08:18:30.776Z,15.19
2023-03-03T08:19:33.332Z,11.69
2023-03-03T08:20:35.897Z,14.33
2023-03-03T08:21:38.471Z,13.55
2023-03-03T08:22:41.186Z,16.11
2023-03-03T08:23:43.746Z,13.24
2023-03-03T08:24:46.313Z,20.65
2023-03-03T08:25:48.886Z,15.39
2023-03-03T08:26:51.663Z,14.74
2023-03-03T08:27:54.262Z,6.37
2023-03-03T08:28:56.840Z,11.57
2023-03-03T08:29:59.641Z,10.78
2023-03-03T08:31:15.355Z,12.50
2023-03-03T08:32:07.017Z,12.52
2023-03-03T08:33:09.816Z,10.88
2023-03-03T08:34:12.418Z,14.61
2023-03-03T08:35:15.044Z,8.54
2023-03-03T08:36:17.833Z,11.71
2023-03-03T08:37:20.521Z,9.89
2023-03-03T08:38:23.109Z,7.77
2023-03-03T08:39:25.688Z,11.64
2023-03-03T08:40:28.444Z,10.06
2023-03-03T08:41:31.111Z,10.89
2023-03-03T08:42:33.684Z,8.11
2023-03-03T08:43:36.293Z,10.04
2023-03-03T08:44:38.861Z,10.39
2023-03-03T08:45:41.417Z,9.83
2023-03-03T08:46:44.303Z,11.36
2023-03-03T08:47:47.179Z,7.91
2023-03-03T08:48:49.765Z,9.32
2023-03-03T08:49:52.299Z,9.00
2023-03-03T08:50:55.191Z,10.86
2023-03-03T08:51:57.790Z,7.47
2023-03-03T08:53:00.362Z,8.59
2023-03-03T08:54:02.968Z,9.11
2023-03-03T08:55:07.033Z,9.74
2023-03-03T08:56:10.743Z,7.57
2023-03-03T08:57:13.315Z,7.43
2023-03-03T08:58:16.028Z,7.79
2023-03-03T08:59:18.717Z,10.29
2023-03-03T09:00:21.394Z,8.38
2023-03-03T09:01:24.001Z,7.80
2023-03-03T09:02:26.522Z,8.31
2023-03-03T09:03:29.137Z,11.55
2023-03-03T09:04:31.731Z,10.57
2023-03-03T09:05:34.338Z,9.93
2023-03-03T09:06:37.315Z,11.93
2023-03-03T09:07:39.865Z,11.59
2023-03-03T09:08:42.491Z,8.87
2023-03-03T09:09:45.122Z,8.70
2023-03-03T09:10:48.030Z,7.13
2023-03-03T09:11:50.561Z,9.20
2023-03-03T09:12:53.129Z,6.07
2023-03-03T09:13:55.700Z,8.53
2023-03-03T09:14:58.324Z,9.93
2023-03-03T09:16:01.004Z,9.87
2023-03-03T09:17:03.763Z,9.09
2023-03-03T09:18:06.369Z,8.47
2023-03-03T09:19:08.925Z,8.00
2023-03-03T09:20:12.045Z,11.64
2023-03-03T09:21:14.616Z,12.04
2023-03-03T09:22:17.181Z,10.72
2023-03-03T09:23:19.776Z,8.35
2023-03-03T09:24:22.634Z,8.42
2023-03-03T09:25:25.161Z,8.44
2023-03-03T09:26:28.402Z,10.21
2023-03-03T09:27:31.011Z,9.26
2023-03-03T09:28:33.562Z,11.17
2023-03-03T09:29:36.165Z,8.70
2023-03-03T09:30:39.114Z,9.62
2023-03-03T09:31:41.728Z,12.25
2023-03-03T09:32:44.436Z,9.00
2023-03-03T09:33:47.109Z,10.53
2023-03-03T09:34:49.652Z,11.13
2023-03-03T09:35:52.268Z,9.13
2023-03-03T09:36:55.088Z,12.88
2023-03-03T09:37:57.623Z,8.57
2023-03-03T09:39:00.180Z,7.62
2023-03-03T09:40:03.044Z,8.44
2023-03-03T09:41:05.551Z,9.59
2023-03-03T09:42:08.405Z,8.33
2023-03-03T09:43:10.961Z,7.82
2023-03-03T09:44:13.950Z,11.81
2023-03-03T09:45:16.526Z,7.73
2023-03-03T09:46:19.409Z,6.68
2023-03-03T09:47:22.248Z,5.30
2023-03-03T09:48:25.009Z,6.46
2023-03-03T09:49:27.549Z,7.44
2023-03-03T09:50:30.317Z,6.71
2023-03-03T09:51:32.925Z,7.38
2023-03-03T09:52:35.477Z,5.45
2023-03-03T09:53:38.040Z,4.57
2023-03-03T09:54:40.613Z,8.15
2023-03-03T09:55:43.235Z,5.94
2023-03-03T09:56:46.056Z,8.24
2023-03-03T09:57:55.767Z,5.65
2023-03-03T09:58:52.988Z,5.11
2023-03-03T09:59:55.543Z,5.80
2023-03-03T10:00:58.343Z,6.17
2023-03-03T10:02:00.894Z,7.31
2023-03-03T10:03:03.517Z,4.31
2023-03-03T10:04:06.330Z,7.71
2023-03-03T10:05:08.965Z,5.57
2023-03-03T10:06:11.925Z,8.31
2023-03-03T10:07:14.503Z,5.45
2023-03-03T10:08:17.071Z,7.89
2023-03-03T10:09:19.629Z,7.66
2023-03-03T10:10:22.386Z,6.01
2023-03-03T10:11:24.993Z,6.93
2023-03-03T10:12:28.799Z,6.50
2023-03-03T10:13:31.392Z,5.75
2023-03-03T10:14:33.983Z,6.01
2023-03-03T10:15:36.582Z,8.22
2023-03-03T10:16:39.317Z,3.96
2023-03-03T10:17:41.919Z,7.69
2023-03-03T10:18:44.569Z,5.76
2023-03-03T10:19:47.614Z,5.83
2023-03-03T10:20:52.785Z,3.46
2023-03-03T10:21:54.938Z,4.13
2023-03-03T10:22:57.556Z,6.93
2023-03-03T10:24:00.079Z,4.95
2023-03-03T10:25:02.684Z,6.31
2023-03-03T10:26:05.531Z,6.02
2023-03-03T10:27:13.790Z,6.37
2023-03-03T10:28:12.486Z,10.27
2023-03-03T10:29:22.210Z,6.65
2023-03-03T10:30:33.193Z,9.53
2023-03-03T10:31:28.386Z,7.33
2023-03-03T10:32:28.834Z,5.85
2023-03-03T10:33:31.630Z,7.50
2023-03-03T10:34:34.625Z,8.50
2023-03-03T10:35:37.282Z,9.43
2023-03-03T10:36:40.435Z,8.16
2023-03-03T10:37:42.986Z,7.52
2023-03-03T10:38:45.584Z,8.32
2023-03-03T10:39:48.141Z,8.72
2023-03-03T10:40:51.145Z,9.06
2023-03-03T10:41:53.731Z,4.87
2023-03-03T10:42:56.311Z,6.35
2023-03-03T10:43:58.879Z,6.27
2023-03-03T10:45:02.028Z,7.26
2023-03-03T10:46:05.056Z,4.99
2023-03-03T10:47:07.593Z,5.04
2023-03-03T10:48:10.192Z,4.31
2023-03-03T10:49:12.791Z,5.93
2023-03-03T10:50:15.817Z,5.13
2023-03-03T10:51:18.388Z,5.63
2023-03-03T10:52:20.950Z,6.42
2023-03-03T10:53:23.568Z,5.62
2023-03-03T10:54:26.426Z,5.76
2023-03-03T10:55:29.006Z,7.79
2023-03-03T10:56:35.408Z,6.00
2023-03-03T10:57:36.189Z,4.92
2023-03-03T10:58:38.769Z,9.48
2023-03-03T10:59:41.392Z,8.85
2023-03-03T11:00:44.584Z,4.96
2023-03-03T11:01:47.162Z,9.35
2023-03-03T11:02:50.123Z,5.13
2023-03-03T11:03:53.005Z,7.98
2023-03-03T11:04:55.621Z,3.10
2023-03-03T11:05:58.183Z,5.19
2023-03-03T11:07:01.140Z,7.05
2023-03-03T11:08:04.313Z,7.50
2023-03-03T11:09:06.838Z,8.25
2023-03-03T11:10:09.885Z,14.98
2023-03-03T11:11:12.442Z,9.00
2023-03-03T11:12:15.001Z,19.37
2023-03-03T11:13:17.871Z,12.10
2023-03-03T11:14:20.433Z,17.43
2023-03-03T11:15:23.037Z,8.09
2023-03-03T11:16:25.856Z,11.74
2023-03-03T11:17:28.387Z,8.84
2023-03-03T11:18:30.949Z,12.82
2023-03-03T11:19:33.522Z,7.17
2023-03-03T11:20:36.251Z,8.87
2023-03-03T11:21:38.889Z,7.87
2023-03-03T11:22:41.455Z,8.62
2023-03-03T11:23:44.031Z,8.90
2023-03-03T11:24:46.580Z,6.13
2023-03-03T11:25:49.311Z,10.61
2023-03-03T11:26:53.976Z,9.16
2023-03-03T11:27:56.556Z,14.08
2023-03-03T11:28:59.113Z,10.87
2023-03-03T11:30:01.680Z,8.03
2023-03-03T11:31:04.331Z,9.85
2023-03-03T11:32:07.078Z,7.29
2023-03-03T11:33:09.816Z,8.49
2023-03-03T11:34:12.374Z,7.97
2023-03-03T11:35:14.927Z,11.50
2023-03-03T11:36:17.535Z,12.39
2023-03-03T11:37:20.099Z,7.18
2023-03-03T11:38:22.666Z,3.39
2023-03-03T11:39:25.226Z,12.19
2023-03-03T11:40:27.803Z,6.76
2023-03-03T11:41:30.376Z,11.25
2023-03-03T11:42:32.962Z,16.59
2023-03-03T11:43:37.457Z,10.11
2023-03-03T11:44:39.709Z,7.52
2023-03-03T11:45:42.262Z,11.27
2023-03-03T11:46:45.050Z,9.44
2023-03-03T11:47:47.517Z,11.68
2023-03-03T11:48:50.084Z,8.58
2023-03-03T11:49:52.626Z,6.34
2023-03-03T11:50:55.494Z,8.21
2023-03-03T11:51:58.077Z,6.38
2023-03-03T11:53:00.633Z,5.95
2023-03-03T11:54:03.197Z,9.55
2023-03-03T11:55:05.770Z,10.19
2023-03-03T11:56:10.098Z,10.66
2023-03-03T11:57:13.049Z,10.33
2023-03-03T11:58:15.652Z,19.89
2023-03-03T11:59:18.266Z,8.19
2023-03-03T12:00:21.016Z,6.00
2023-03-03T12:01:24.891Z,7.05
2023-03-03T12:02:27.475Z,8.51
2023-03-03T12:03:30.459Z,10.07
2023-03-03T12:04:32.996Z,6.90
2023-03-03T12:05:35.691Z,7.53
2023-03-03T12:06:38.599Z,9.09
2023-03-03T12:07:41.187Z,12.22
2023-03-03T12:08:43.750Z,16.79
2023-03-03T12:09:46.202Z,14.35
2023-03-03T12:10:48.960Z,6.58
2023-03-03T12:11:53.978Z,9.15
2023-03-03T12:12:55.894Z,11.68
2023-03-03T12:13:58.500Z,16.91
2023-03-03T12:15:01.076Z,13.95
2023-03-03T12:16:03.873Z,7.23
2023-03-03T12:17:06.593Z,11.93
2023-03-03T12:18:09.157Z,9.74
2023-03-03T12:19:11.707Z,32.67
2023-03-03T12:20:14.790Z,8.78
2023-03-03T12:21:17.416Z,6.64
2023-03-03T12:22:19.977Z,16.70
2023-03-03T12:23:22.564Z,7.77
2023-03-03T12:24:25.147Z,11.78
2023-03-03T12:25:27.825Z,10.07
2023-03-03T12:26:30.518Z,7.91
2023-03-03T12:27:33.064Z,9.97
2023-03-03T12:28:35.642Z,11.29
2023-03-03T12:29:38.510Z,24.84
2023-03-03T12:30:41.172Z,17.99
2023-03-03T12:31:43.820Z,15.57
2023-03-03T12:32:46.510Z,7.56
2023-03-03T12:33:49.108Z,15.27
2023-03-03T12:34:51.675Z,9.65
2023-03-03T12:35:54.297Z,10.06
2023-03-03T12:36:57.225Z,8.48
2023-03-03T12:37:59.778Z,7.90
2023-03-03T12:39:02.386Z,11.52
2023-03-03T12:40:05.452Z,12.26
2023-03-03T12:41:07.909Z,6.30
2023-03-03T12:42:10.467Z,7.75
2023-03-03T12:43:13.040Z,11.59
2023-03-03T12:44:15.609Z,7.73
2023-03-03T12:45:18.217Z,7.57
2023-03-03T12:46:21.047Z,7.46
2023-03-03T12:47:23.952Z,10.33
2023-03-03T12:48:26.508Z,8.55
2023-03-03T12:49:32.492Z,10.29
2023-03-03T12:50:33.782Z,7.32
2023-03-03T12:51:36.302Z,8.23
2023-03-03T12:52:38.983Z,8.87
2023-03-03T12:53:41.546Z,7.91
2023-03-03T12:54:44.105Z,8.23
2023-03-03T12:55:46.686Z,8.17
2023-03-03T12:56:49.442Z,6.91
2023-03-03T12:57:52.039Z,8.76
2023-03-03T12:58:54.575Z,8.27
2023-03-03T12:59:57.302Z,11.77
2023-03-03T13:01:00.149Z,9.13
2023-03-03T13:02:03.026Z,10.99
2023-03-03T13:03:05.674Z,9.37
2023-03-03T13:04:08.277Z,8.71
2023-03-03T13:05:10.813Z,7.66
2023-03-03T13:06:14.080Z,10.22
2023-03-03T13:07:16.639Z,11.13
2023-03-03T13:08:19.277Z,8.76
2023-03-03T13:09:22.117Z,7.84
2023-03-03T13:10:24.785Z,9.53
2023-03-03T13:11:27.439Z,8.79
2023-03-03T13:12:30.008Z,7.89
2023-03-03T13:13:32.578Z,9.25
2023-03-03T13:14:35.130Z,8.72
2023-03-03T13:15:38.241Z,9.71
2023-03-03T13:16:42.073Z,5.68
2023-03-03T13:17:44.691Z,7.34
2023-03-03T13:18:47.242Z,9.33
2023-03-03T13:19:49.827Z,9.73
2023-03-03T13:20:52.751Z,7.88
2023-03-03T13:21:55.252Z,7.26
2023-03-03T13:22:57.762Z,6.01
2023-03-03T13:24:00.379Z,8.68
2023-03-03T13:25:02.951Z,12.85
2023-03-03T13:26:05.708Z,9.16
2023-03-03T13:27:08.274Z,8.35
2023-03-03T13:28:10.854Z,13.35
2023-03-03T13:29:13.457Z,10.95
2023-03-03T13:30:16.399Z,10.32
2023-03-03T13:31:18.901Z,9.70
2023-03-03T13:32:21.488Z,9.63
2023-03-03T13:33:24.158Z,13.34
2023-03-03T13:34:26.720Z,10.66
2023-03-03T13:35:29.295Z,11.69